createdAt,value
2023-01-18T00:01:39.811Z,6.43
2023-01-18T00:07:01.529Z,6.40
2023-01-18T00:12:23.272Z,6.50
2023-01-18T00:17:47.703Z,7.17
2023-01-18T00:23:09.547Z,8.00
2023-01-18T00:28:31.926Z,7.67
2023-01-18T00:33:53.611Z,8.13
2023-01-18T00:39:15.849Z,8.17
2023-01-18T00:44:37.584Z,9.33
2023-01-18T00:49:59.323Z,9.77
2023-01-18T00:55:21.052Z,10.40
2023-01-18T01:00:42.819Z,10.30
2023-01-18T01:06:23.244Z,10.63
2023-01-18T01:12:05.564Z,11.43
2023-01-18T01:17:55.089Z,10.10
2023-01-18T01:23:41.010Z,10.40
2023-01-18T01:29:02.911Z,9.93
2023-01-18T01:34:24.680Z,10.30
2023-01-18T01:39:46.373Z,11.47
2023-01-18T01:45:09.037Z,10.43
2023-01-18T01:50:39.359Z,11.43
2023-01-18T01:56:01.797Z,11.10
2023-01-18T02:01:23.662Z,11.10
2023-01-18T02:06:45.457Z,11.90
2023-01-18T02:12:07.171Z,11.30
2023-01-18T02:17:47.618Z,12.60
2023-01-18T02:23:30.754Z,10.90
2023-01-18T02:29:17.507Z,10.33
2023-01-18T02:34:42.492Z,10.37
2023-01-18T02:40:14.691Z,11.70
2023-01-18T02:46:03.904Z,12.30
2023-01-18T02:51:25.627Z,12.43
2023-01-18T02:56:51.341Z,12.03
2023-01-18T03:02:16.972Z,12.40
2023-01-18T03:07:52.111Z,11.90
2023-01-18T03:13:22.042Z,10.50
2023-01-18T03:19:05.059Z,10.27
2023-01-18T03:24:30.073Z,11.13
2023-01-18T03:30:10.266Z,11.90
2023-01-18T03:35:32.645Z,12.37
2023-01-18T03:40:55.091Z,10.83
2023-01-18T03:46:19.225Z,11.20
2023-01-18T03:51:51.679Z,11.73
2023-01-18T03:57:24.043Z,11.30
2023-01-18T04:02:48.552Z,11.93
2023-01-18T04:08:10.275Z,11.20
2023-01-18T04:13:31.963Z,10.60
2023-01-18T04:18:53.697Z,11.37
2023-01-18T04:24:17.179Z,11.17
2023-01-18T04:29:39.086Z,11.17
2023-01-18T04:35:00.799Z,12.03
2023-01-18T04:40:22.507Z,10.80
2023-01-18T04:45:55.620Z,10.73
2023-01-18T04:51:17.943Z,11.23
2023-01-18T04:56:39.778Z,11.57
2023-01-18T05:02:01.521Z,9.67
2023-01-18T05:07:27.060Z,9.27
2023-01-18T05:12:48.738Z,9.43
2023-01-18T05:18:10.473Z,8.33
2023-01-18T05:23:32.483Z,7.30
2023-01-18T05:28:58.612Z,6.40
2023-01-18T05:34:20.307Z,6.87
2023-01-18T05:39:42.246Z,5.17
2023-01-18T05:45:04.274Z,5.13
2023-01-18T05:50:25.999Z,4.53
2023-01-18T05:56:01.339Z,4.80
2023-01-18T06:01:23.105Z,4.53
2023-01-18T06:06:44.855Z,4.87
2023-01-18T06:12:07.012Z,4.70
2023-01-18T06:17:31.242Z,4.47
2023-01-18T06:22:52.955Z,3.97
2023-01-18T06:28:14.739Z,4.63
2023-01-18T06:33:36.469Z,4.60
2023-01-18T06:38:58.179Z,4.50
2023-01-18T06:44:20.012Z,4.67
2023-01-18T06:49:41.764Z,4.30
2023-01-18T06:55:03.689Z,5.33
2023-01-18T07:00:25.412Z,5.10
2023-01-18T07:05:48.064Z,5.50
2023-01-18T07:11:12.043Z,5.73
2023-01-18T07:16:33.806Z,6.93
2023-01-18T07:21:55.523Z,6.87
2023-01-18T07:27:17.212Z,6.13
2023-01-18T07:32:39.386Z,6.20
2023-01-18T07:38:02.155Z,7.70
2023-01-18T07:43:24.155Z,6.53
2023-01-18T07:48:46.441Z,5.73
2023-01-18T07:54:08.147Z,5.60
2023-01-18T07:59:32.315Z,7.40
2023-01-18T08:04:54.018Z,6.13
2023-01-18T08:10:16.705Z,7.00
2023-01-18T08:15:38.926Z,6.00
2023-01-18T08:21:00.854Z,7.27
2023-01-18T08:26:22.543Z,7.03
2023-01-18T08:31:44.238Z,7.30
2023-01-18T08:37:06.010Z,7.13
2023-01-18T08:42:27.694Z,6.07
2023-01-18T08:47:55.652Z,6.73
2023-01-18T08:53:17.387Z,6.20
2023-01-18T08:58:39.347Z,6.90
2023-01-18T09:04:01.036Z,5.73
2023-01-18T09:09:22.721Z,6.00
2023-01-18T09:14:44.396Z,5.40
2023-01-18T09:20:09.639Z,5.37
2023-01-18T09:25:31.690Z,5.63
2023-01-18T09:30:53.911Z,5.93
2023-01-18T09:36:15.665Z,5.73
2023-01-18T09:41:39.747Z,8.43
2023-01-18T09:47:07.385Z,5.70
2023-01-18T09:52:50.819Z,5.53
2023-01-18T09:58:27.635Z,5.60
2023-01-18T10:04:12.090Z,5.73
2023-01-18T10:09:40.149Z,5.87
2023-01-18T10:15:20.272Z,5.50
2023-01-18T10:20:48.872Z,4.47
2023-01-18T10:26:28.666Z,5.40
2023-01-18T10:32:19.847Z,5.43
2023-01-18T10:37:46.490Z,6.10
2023-01-18T10:43:17.034Z,6.93
2023-01-18T10:48:39.318Z,5.90
2023-01-18T10:54:26.705Z,6.30
2023-01-18T10:59:52.184Z,6.83
2023-01-18T11:05:26.124Z,7.17
2023-01-18T11:10:59.737Z,6.97
2023-01-18T11:16:23.280Z,6.80
2023-01-18T11:21:47.681Z,6.17
2023-01-18T11:27:15.294Z,6.43
2023-01-18T11:32:39.778Z,6.40
2023-01-18T11:38:03.256Z,6.10
2023-01-18T11:43:27.838Z,5.63
2023-01-18T11:49:20.445Z,5.77
2023-01-18T11:54:47.028Z,5.67
2023-01-18T12:00:14.412Z,4.93
2023-01-18T12:05:36.083Z,4.60
2023-01-18T12:11:14.236Z,4.80
2023-01-18T12:17:02.396Z,3.80
2023-01-18T12:22:49.949Z,4.60
2023-01-18T12:28:40.944Z,4.93
2023-01-18T12:34:21.998Z,4.70
2023-01-18T12:40:08.453Z,4.80
2023-01-18T12:45:40.399Z,4.80
2023-01-18T12:51:11.671Z,5.37
2023-01-18T12:56:39.922Z,4.27
2023-01-18T13:02:21.342Z,5.17
2023-01-18T13:07:49.542Z,5.50
2023-01-18T13:13:17.519Z,4.43
2023-01-18T13:19:00.487Z,4.87
2023-01-18T13:24:52.917Z,4.97
2023-01-18T13:30:16.961Z,4.47
2023-01-18T13:35:50.879Z,4.67
2023-01-18T13:41:13.421Z,4.37
2023-01-18T13:46:39.268Z,4.27
2023-01-18T13:52:02.558Z,4.50
2023-01-18T13:57:24.659Z,4.10
2023-01-18T14:02:51.788Z,4.33
2023-01-18T14:08:23.427Z,4.00
2023-01-18T14:13:45.060Z,4.17
2023-01-18T14:19:19.234Z,4.20
2023-01-18T14:24:58.612Z,4.27
2023-01-18T14:30:29.666Z,4.10
2023-01-18T14:35:58.206Z,4.57
2023-01-18T14:41:20.070Z,4.17
2023-01-18T14:46:42.932Z,4.70
2023-01-18T14:52:06.616Z,4.47
2023-01-18T14:57:29.317Z,4.47
2023-01-18T15:02:51.042Z,4.57
2023-01-18T15:08:12.987Z,4.17
2023-01-18T15:13:47.554Z,4.70
2023-01-18T15:19:20.378Z,4.60
2023-01-18T15:24:44.108Z,4.73
2023-01-18T15:30:12.658Z,4.50
2023-01-18T15:35:34.417Z,4.50
2023-01-18T15:41:10.898Z,4.20
2023-01-18T15:46:38.560Z,4.23
2023-01-18T15:52:00.422Z,4.40
2023-01-18T15:57:22.547Z,4.30
2023-01-18T16:02:51.393Z,4.30
2023-01-18T16:08:21.516Z,4.17
2023-01-18T16:13:43.540Z,4.37
2023-01-18T16:19:14.113Z,4.83
2023-01-18T16:24:41.011Z,3.93
2023-01-18T16:30:36.870Z,4.87
2023-01-18T16:35:58.577Z,5.03
2023-01-18T16:41:20.347Z,3.97
2023-01-18T16:46:42.045Z,3.73
2023-01-18T16:52:04.619Z,4.60
2023-01-18T16:57:26.607Z,4.40
2023-01-18T17:02:48.871Z,4.13
2023-01-18T17:08:13.700Z,3.83
2023-01-18T17:13:35.374Z,3.97
2023-01-18T17:18:57.064Z,4.10
2023-01-18T17:24:21.321Z,3.93
2023-01-18T17:29:42.986Z,4.60
2023-01-18T17:35:06.431Z,3.90
2023-01-18T17:40:39.398Z,3.90
2023-01-18T17:46:04.085Z,7.17
2023-01-18T17:51:25.939Z,4.40
2023-01-18T17:56:47.668Z,3.87
2023-01-18T18:02:10.801Z,4.50
2023-01-18T18:07:33.176Z,4.83
2023-01-18T18:12:55.028Z,4.43
2023-01-18T18:18:24.185Z,4.57
2023-01-18T18:23:46.154Z,4.87
2023-01-18T18:29:07.940Z,4.80
2023-01-18T18:34:30.057Z,4.57
2023-01-18T18:39:51.764Z,4.23
2023-01-18T18:45:13.434Z,4.67
2023-01-18T18:50:35.331Z,5.30
2023-01-18T18:56:00.214Z,5.20
2023-01-18T19:01:24.545Z,5.50
2023-01-18T19:06:46.493Z,6.03
2023-01-18T19:12:09.069Z,5.67
2023-01-18T19:17:31.580Z,6.43
2023-01-18T19:22:53.853Z,5.77
2023-01-18T19:28:16.577Z,6.17
2023-01-18T19:33:38.449Z,5.60
2023-01-18T19:39:02.244Z,7.37
2023-01-18T19:44:24.465Z,14.83
2023-01-18T19:49:46.252Z,7.17
2023-01-18T19:55:08.365Z,6.33
2023-01-18T20:00:30.498Z,5.83
2023-01-18T20:05:52.365Z,5.67
2023-01-18T20:11:15.607Z,6.37
2023-01-18T20:16:38.555Z,6.33
2023-01-18T20:22:00.313Z,6.63
2023-01-18T20:27:22.018Z,7.40
2023-01-18T20:32:43.969Z,7.27
2023-01-18T20:38:06.429Z,6.57
2023-01-18T20:43:28.313Z,6.53
2023-01-18T20:48:50.017Z,7.10
2023-01-18T20:54:11.850Z,7.30
2023-01-18T20:59:36.258Z,6.67
2023-01-18T21:04:58.149Z,7.53
2023-01-18T21:10:20.025Z,6.67
2023-01-18T21:15:45.802Z,6.90
2023-01-18T21:21:09.584Z,7.40
2023-01-18T21:26:36.420Z,6.80
2023-01-18T21:31:58.520Z,6.80
2023-01-18T21:37:20.231Z,7.70
2023-01-18T21:43:08.337Z,7.53
2023-01-18T21:48:31.495Z,6.93
2023-01-18T21:54:11.625Z,7.80
2023-01-18T21:59:34.479Z,7.43
2023-01-18T22:05:00.015Z,7.20
2023-01-18T22:10:21.699Z,7.93
2023-01-18T22:15:43.371Z,8.03
2023-01-18T22:21:05.233Z,7.30
2023-01-18T22:26:29.480Z,7.53
2023-01-18T22:31:52.827Z,7.40
2023-01-18T22:37:14.534Z,7.90
2023-01-18T22:42:36.273Z,8.20
2023-01-18T22:47:58.352Z,7.87
2023-01-18T22:53:21.265Z,7.37
2023-01-18T22:58:43.408Z,7.47
2023-01-18T23:04:05.545Z,7.77
2023-01-18T23:09:27.436Z,7.47
2023-01-18T23:15:07.896Z,7.13
2023-01-18T23:20:29.622Z,8.00
2023-01-18T23:25:55.236Z,7.70
2023-01-18T23:31:18.187Z,7.70
2023-01-18T23:36:39.948Z,8.30
2023-01-18T23:42:20.200Z,8.20
2023-01-18T23:48:00.849Z,8.13
2023-01-18T23:53:41.454Z,8.47
2023-01-18T23:59:03.243Z,8.23
